Ledyard, Iowa
Current Conditions -  °F | °C
As of 10:55 AM on Wednesday 22 Oct 2014 (Local Time) from KFRM Reporting Station
Clear Clear  
Wind Chill: 54°   Ceiling: Unl
Heat Index: 54°   Visibility: 10mi
Dew Point: 37°   Wind: 25mph
Humidity: 54%   Direction: 160°SSE
Pressure: 30.11"   Gusts: 32mph
Location:  43.42°N, 94.16°W
Report Text: KFRM 221555Z AUTO 16022G28KT 10SM CLR 12/03 A3011 RMK AO1
Loading
Personal Weather Stations






























Interactive Weather Map
Tropical Storm Tracking
New forecast layout! Learn more

10-Day Weather Forecast

Advertisements
Track Severe Weather on mobile